createdAt,value
2022-12-15T00:00:48.868Z,96997.00
2022-12-15T00:03:31.715Z,96997.00
2022-12-15T00:06:15.763Z,97001.00
2022-12-15T00:09:00.689Z,97008.00
2022-12-15T00:11:42.980Z,97019.00
2022-12-15T00:14:26.625Z,97012.00
2022-12-15T00:17:08.948Z,97013.00
2022-12-15T00:19:51.233Z,97011.00
2022-12-15T00:22:33.656Z,97000.00
2022-12-15T00:25:18.729Z,97003.00
2022-12-15T00:28:01.035Z,97003.00
2022-12-15T00:30:43.331Z,97018.00
2022-12-15T00:33:26.535Z,97022.00
2022-12-15T00:36:08.838Z,97024.00
2022-12-15T00:38:47.930Z,97029.00
2022-12-15T00:41:21.036Z,97025.00
2022-12-15T00:43:51.019Z,97027.00
2022-12-15T00:46:33.411Z,97035.00
2022-12-15T00:49:03.874Z,97038.00
2022-12-15T00:51:46.179Z,97041.00
2022-12-15T00:54:28.480Z,97034.00
2022-12-15T00:57:13.360Z,97031.00
2022-12-15T00:59:55.673Z,97039.00
2022-12-15T01:02:38.108Z,97039.00
2022-12-15T01:05:21.580Z,97047.00
2022-12-15T01:08:03.860Z,97046.00
2022-12-15T01:10:46.152Z,97050.00
2022-12-15T01:13:31.464Z,97051.00
2022-12-15T01:16:14.057Z,97064.00
2022-12-15T01:18:56.379Z,97067.00
2022-12-15T01:21:26.303Z,97070.00
2022-12-15T01:23:56.562Z,97078.00
2022-12-15T01:26:26.559Z,97081.00
2022-12-15T01:28:58.999Z,97071.00
2022-12-15T01:31:28.995Z,97079.00
2022-12-15T01:33:58.903Z,97081.00
2022-12-15T01:36:28.748Z,97082.00
2022-12-15T01:38:58.652Z,97082.00
2022-12-15T01:41:25.908Z,97087.00
2022-12-15T01:43:58.524Z,97082.00
2022-12-15T01:46:28.603Z,97090.00
2022-12-15T01:49:02.765Z,97085.00
2022-12-15T01:51:35.825Z,97078.00
2022-12-15T01:54:09.005Z,97075.00
2022-12-15T01:56:41.058Z,97087.00
2022-12-15T01:59:17.955Z,97085.00
2022-12-15T02:01:50.006Z,97085.00
2022-12-15T02:04:21.543Z,97084.00
2022-12-15T02:06:53.118Z,97082.00
2022-12-15T02:09:24.111Z,97093.00
2022-12-15T02:12:03.719Z,97096.00
2022-12-15T02:14:48.782Z,97120.00
2022-12-15T02:17:26.429Z,97123.00
2022-12-15T02:20:41.963Z,97118.00
2022-12-15T02:23:37.429Z,97112.00
2022-12-15T02:26:48.916Z,97117.00
2022-12-15T02:29:43.835Z,97126.00
2022-12-15T02:32:18.129Z,97138.00
2022-12-15T02:34:50.745Z,97140.00
2022-12-15T02:37:22.721Z,97145.00
2022-12-15T02:39:52.747Z,97147.00
2022-12-15T02:42:22.884Z,97155.00
2022-12-15T02:44:55.709Z,97161.00
2022-12-15T02:47:34.555Z,97160.00
2022-12-15T02:50:46.180Z,97165.00
2022-12-15T02:53:29.045Z,97160.00
2022-12-15T02:56:03.971Z,97160.00
2022-12-15T02:58:40.652Z,97162.00
2022-12-15T03:01:14.636Z,97176.00
2022-12-15T03:03:47.312Z,97158.00
2022-12-15T03:06:17.545Z,97172.00
2022-12-15T03:08:47.502Z,97166.00
2022-12-15T03:11:17.378Z,97183.00
2022-12-15T03:13:47.333Z,97171.00
2022-12-15T03:16:20.476Z,97177.00
2022-12-15T03:18:53.065Z,97178.00
2022-12-15T03:21:22.990Z,97174.00
2022-12-15T03:23:52.921Z,97170.00
2022-12-15T03:26:22.795Z,97178.00
2022-12-15T03:28:52.938Z,97181.00
2022-12-15T03:31:23.575Z,97185.00
2022-12-15T03:33:56.188Z,97171.00
2022-12-15T03:36:26.182Z,97192.00
2022-12-15T03:38:56.029Z,97183.00
2022-12-15T03:41:25.869Z,97193.00
2022-12-15T03:43:55.694Z,97193.00
2022-12-15T03:46:25.586Z,97197.00
2022-12-15T03:48:58.700Z,97199.00
2022-12-15T03:51:28.875Z,97216.00
2022-12-15T03:53:59.150Z,97205.00
2022-12-15T03:56:29.129Z,97213.00
2022-12-15T03:58:59.098Z,97210.00
2022-12-15T04:01:31.716Z,97212.00
2022-12-15T04:04:05.193Z,97212.00
2022-12-15T04:06:35.212Z,97201.00
2022-12-15T04:09:05.220Z,97214.00
2022-12-15T04:11:35.094Z,97226.00
2022-12-15T04:14:05.037Z,97223.00
2022-12-15T04:16:35.001Z,97239.00
2022-12-15T04:19:20.414Z,97243.00
2022-12-15T04:21:50.457Z,97249.00
2022-12-15T04:24:32.785Z,97236.00
2022-12-15T04:27:15.057Z,97241.00
2022-12-15T04:29:57.414Z,97236.00
2022-12-15T04:32:39.780Z,97247.00
2022-12-15T04:35:25.126Z,97248.00
2022-12-15T04:38:07.420Z,97271.00
2022-12-15T04:40:49.700Z,97271.00
2022-12-15T04:43:32.337Z,97256.00
2022-12-15T04:46:15.019Z,97274.00
2022-12-15T04:48:57.323Z,97274.00
2022-12-15T04:51:42.225Z,97247.00
2022-12-15T04:54:24.544Z,97259.00
2022-12-15T04:57:06.860Z,97254.00
2022-12-15T04:59:49.173Z,97246.00
2022-12-15T05:02:31.551Z,97263.00
2022-12-15T05:05:13.922Z,97266.00
2022-12-15T05:07:58.803Z,97276.00
2022-12-15T05:10:41.085Z,97287.00
2022-12-15T05:13:24.099Z,97304.00
2022-12-15T05:16:06.511Z,97308.00
2022-12-15T05:18:48.904Z,97325.00
2022-12-15T05:21:31.204Z,97324.00
2022-12-15T05:24:16.292Z,97319.00
2022-12-15T05:26:58.632Z,97334.00
2022-12-15T05:29:40.971Z,97334.00
2022-12-15T05:32:13.292Z,97331.00
2022-12-15T05:34:43.220Z,97351.00
2022-12-15T05:37:13.133Z,97359.00
2022-12-15T05:39:45.656Z,97364.00
2022-12-15T05:42:15.745Z,97344.00
2022-12-15T05:44:45.884Z,97336.00
2022-12-15T05:47:15.721Z,97342.00
2022-12-15T05:49:45.657Z,97341.00
2022-12-15T05:52:15.457Z,97350.00
2022-12-15T05:54:47.999Z,97357.00
2022-12-15T05:57:17.930Z,97363.00
2022-12-15T05:59:47.746Z,97368.00
2022-12-15T06:02:17.665Z,97368.00
2022-12-15T06:04:47.742Z,97367.00
2022-12-15T06:07:17.704Z,97363.00
2022-12-15T06:09:50.119Z,97377.00
2022-12-15T06:12:20.133Z,97388.00
2022-12-15T06:14:50.066Z,97373.00
2022-12-15T06:17:20.027Z,97379.00
2022-12-15T06:19:50.068Z,97364.00
2022-12-15T06:22:19.932Z,97382.00
2022-12-15T06:24:52.384Z,97390.00
2022-12-15T06:27:22.525Z,97394.00
2022-12-15T06:29:52.544Z,97401.00
2022-12-15T06:32:22.505Z,97413.00
2022-12-15T06:34:52.492Z,97412.00
2022-12-15T06:37:22.379Z,97412.00
2022-12-15T06:39:54.940Z,97414.00
2022-12-15T06:42:24.859Z,97416.00
2022-12-15T06:44:54.793Z,97421.00
2022-12-15T06:47:24.724Z,97419.00
2022-12-15T06:49:55.505Z,97413.00
2022-12-15T06:52:25.350Z,97418.00
2022-12-15T06:54:57.937Z,97419.00
2022-12-15T06:57:27.784Z,97424.00
2022-12-15T06:59:57.641Z,97438.00
2022-12-15T07:02:30.186Z,97436.00
2022-12-15T07:05:00.288Z,97444.00
2022-12-15T07:07:30.476Z,97450.00
2022-12-15T07:10:02.976Z,97451.00
2022-12-15T07:12:32.891Z,97457.00
2022-12-15T07:15:03.155Z,97469.00
2022-12-15T07:17:32.996Z,97480.00
2022-12-15T07:20:02.859Z,97491.00
2022-12-15T07:22:32.734Z,97488.00
2022-12-15T07:25:05.228Z,97491.00
2022-12-15T07:27:35.434Z,97494.00
2022-12-15T07:30:05.263Z,97500.00
2022-12-15T07:32:36.111Z,97521.00
2022-12-15T07:35:06.045Z,97520.00
2022-12-15T07:37:35.950Z,97528.00
2022-12-15T07:40:10.081Z,97527.00
2022-12-15T07:42:40.175Z,97545.00
2022-12-15T07:45:11.363Z,97541.00
2022-12-15T07:47:41.317Z,97541.00
2022-12-15T07:50:12.104Z,97522.00
2022-12-15T07:52:42.059Z,97544.00
2022-12-15T07:55:14.715Z,97550.00
2022-12-15T07:57:44.595Z,97535.00
2022-12-15T08:00:15.568Z,97544.00
2022-12-15T08:02:45.752Z,97537.00
2022-12-15T08:05:20.331Z,97547.00
2022-12-15T08:07:50.222Z,97536.00
2022-12-15T08:10:22.709Z,97546.00
2022-12-15T08:12:52.653Z,97553.00
2022-12-15T08:15:22.592Z,97554.00
2022-12-15T08:17:52.515Z,97545.00
2022-12-15T08:20:22.562Z,97559.00
2022-12-15T08:22:52.453Z,97553.00
2022-12-15T08:25:24.981Z,97558.00
2022-12-15T08:27:54.905Z,97562.00
2022-12-15T08:30:24.765Z,97561.00
2022-12-15T08:32:54.666Z,97558.00
2022-12-15T08:35:54.443Z,97564.00
2022-12-15T08:38:14.430Z,97547.00
2022-12-15T08:40:46.970Z,97547.00
2022-12-15T08:43:17.045Z,97557.00
2022-12-15T08:45:47.005Z,97562.00
2022-12-15T08:48:17.016Z,97581.00
2022-12-15T08:50:48.096Z,97578.00
2022-12-15T08:53:33.327Z,97591.00
2022-12-15T08:56:08.629Z,97581.00
2022-12-15T08:58:38.825Z,97594.00
2022-12-15T09:01:11.001Z,97594.00
2022-12-15T09:03:41.733Z,97606.00
2022-12-15T09:06:14.930Z,97609.00
2022-12-15T09:08:45.347Z,97608.00
2022-12-15T09:11:23.028Z,97606.00
2022-12-15T09:13:53.006Z,97610.00
2022-12-15T09:16:24.058Z,97616.00
2022-12-15T09:18:55.626Z,97604.00
2022-12-15T09:21:26.866Z,97625.00
2022-12-15T09:24:00.613Z,97630.00
2022-12-15T09:26:34.661Z,97625.00
2022-12-15T09:29:04.729Z,97622.00
2022-12-15T09:31:39.213Z,97629.00
2022-12-15T09:34:09.107Z,97629.00
2022-12-15T09:36:42.436Z,97625.00
2022-12-15T09:39:12.993Z,97633.00
2022-12-15T09:41:51.952Z,97618.00
2022-12-15T09:44:23.557Z,97608.00
2022-12-15T09:47:01.502Z,97610.00
2022-12-15T09:49:45.607Z,97604.00
2022-12-15T09:52:17.756Z,97619.00
2022-12-15T09:54:48.243Z,97621.00
2022-12-15T09:57:28.485Z,97631.00
2022-12-15T10:00:11.105Z,97624.00
2022-12-15T10:03:19.891Z,97621.00
2022-12-15T10:06:27.089Z,97632.00
2022-12-15T10:08:59.533Z,97639.00
2022-12-15T10:11:50.972Z,97631.00
2022-12-15T10:14:31.413Z,97638.00
2022-12-15T10:17:21.526Z,97633.00
2022-12-15T10:19:56.407Z,97643.00
2022-12-15T10:22:28.889Z,97639.00
2022-12-15T10:25:14.243Z,97639.00
2022-12-15T10:28:02.335Z,97631.00
2022-12-15T10:30:35.390Z,97635.00
2022-12-15T10:33:06.751Z,97631.00
2022-12-15T10:35:39.805Z,97635.00
2022-12-15T10:38:16.844Z,97639.00
2022-12-15T10:40:50.282Z,97642.00
2022-12-15T10:43:29.310Z,97649.00
2022-12-15T10:46:14.147Z,97652.00
2022-12-15T10:48:48.681Z,97654.00
2022-12-15T10:51:37.176Z,97656.00
2022-12-15T10:54:09.854Z,97664.00
2022-12-15T10:56:50.596Z,97663.00
2022-12-15T10:59:28.365Z,97666.00
2022-12-15T11:02:24.357Z,97668.00
2022-12-15T11:04:58.497Z,97668.00
2022-12-15T11:07:29.610Z,97665.00
2022-12-15T11:10:02.747Z,97671.00
2022-12-15T11:12:46.887Z,97671.00
2022-12-15T11:15:56.686Z,97677.00
2022-12-15T11:18:43.552Z,97675.00
2022-12-15T11:21:21.721Z,97678.00
2022-12-15T11:24:01.265Z,97670.00
2022-12-15T11:26:34.212Z,97679.00
2022-12-15T11:29:08.967Z,97671.00
2022-12-15T11:31:41.898Z,97677.00
2022-12-15T11:34:18.573Z,97674.00
2022-12-15T11:36:59.111Z,97690.00
2022-12-15T11:39:39.011Z,97684.00
2022-12-15T11:42:16.595Z,97690.00
2022-12-15T11:44:53.340Z,97683.00
2022-12-15T11:47:29.185Z,97684.00
2022-12-15T11:50:22.745Z,97676.00
2022-12-15T11:53:26.829Z,97677.00
2022-12-15T11:56:02.889Z,97674.00
2022-12-15T11:59:05.006Z,97671.00
2022-12-15T12:01:55.456Z,97670.00
2022-12-15T12:04:29.371Z,97673.00
2022-12-15T12:07:09.821Z,97665.00
2022-12-15T12:09:40.843Z,97658.00
2022-12-15T12:12:19.677Z,97654.00
2022-12-15T12:14:56.156Z,97653.00
2022-12-15T12:17:33.944Z,97663.00
2022-12-15T12:20:11.358Z,97660.00
2022-12-15T12:22:48.357Z,97654.00
2022-12-15T12:25:22.347Z,97653.00
2022-12-15T12:27:56.202Z,97642.00
2022-12-15T12:30:28.374Z,97647.00
2022-12-15T12:33:05.997Z,97652.00
2022-12-15T12:35:40.877Z,97645.00
2022-12-15T12:38:14.775Z,97642.00
2022-12-15T12:40:52.008Z,97637.00
2022-12-15T12:43:31.455Z,97627.00
2022-12-15T12:46:05.014Z,97634.00
2022-12-15T12:48:37.780Z,97638.00
2022-12-15T12:51:19.406Z,97640.00
2022-12-15T12:53:52.680Z,97640.00
2022-12-15T12:56:34.170Z,97644.00
2022-12-15T12:59:08.829Z,97653.00
2022-12-15T13:01:40.223Z,97673.00
2022-12-15T13:04:14.928Z,97666.00
2022-12-15T13:07:05.883Z,97674.00
2022-12-15T13:09:47.670Z,97666.00
2022-12-15T13:12:53.267Z,97674.00
2022-12-15T13:15:37.405Z,97680.00
2022-12-15T13:18:14.549Z,97676.00
2022-12-15T13:20:45.422Z,97674.00
2022-12-15T13:23:38.054Z,97688.00
2022-12-15T13:26:21.700Z,97685.00
2022-12-15T13:28:53.849Z,97691.00
2022-12-15T13:31:36.419Z,97698.00
2022-12-15T13:34:18.877Z,97696.00
2022-12-15T13:36:56.870Z,97696.00
2022-12-15T13:39:38.725Z,97696.00
2022-12-15T13:45:36.826Z,97716.00
2022-12-15T13:48:18.404Z,97717.00
2022-12-15T13:50:52.350Z,97711.00
2022-12-15T13:53:25.744Z,97704.00
2022-12-15T13:56:02.349Z,97703.00
2022-12-15T13:58:41.159Z,97705.00
2022-12-15T14:01:27.261Z,97720.00
2022-12-15T14:04:08.085Z,97726.00
2022-12-15T14:06:40.474Z,97725.00
2022-12-15T14:09:16.151Z,97723.00
2022-12-15T14:11:53.098Z,97729.00
2022-12-15T14:14:28.365Z,97733.00
2022-12-15T14:17:01.350Z,97730.00
2022-12-15T14:19:40.706Z,97738.00
2022-12-15T14:22:27.067Z,97732.00
2022-12-15T14:25:03.268Z,97745.00
2022-12-15T14:27:34.708Z,97741.00
2022-12-15T14:30:33.075Z,97743.00
2022-12-15T14:33:05.617Z,97725.00
2022-12-15T14:35:38.775Z,97743.00
2022-12-15T14:38:10.992Z,97740.00
2022-12-15T14:40:41.590Z,97737.00
2022-12-15T14:43:14.905Z,97731.00
2022-12-15T14:45:47.558Z,97753.00
2022-12-15T14:48:40.983Z,97757.00
2022-12-15T14:51:16.305Z,97765.00
2022-12-15T14:53:47.056Z,97767.00
2022-12-15T14:56:30.785Z,97768.00
2022-12-15T14:59:04.433Z,97773.00
2022-12-15T15:01:42.813Z,97780.00
2022-12-15T15:03:07.531Z,97705.00
2022-12-15T15:04:29.391Z,97783.00
2022-12-15T15:07:00.916Z,97789.00
2022-12-15T15:09:32.630Z,97788.00
2022-12-15T15:12:05.750Z,97794.00
2022-12-15T15:14:36.865Z,97792.00
2022-12-15T15:17:17.104Z,97784.00
2022-12-15T15:19:50.463Z,97776.00
2022-12-15T15:22:39.818Z,97765.00
2022-12-15T15:25:40.015Z,97747.00
2022-12-15T15:28:23.326Z,97753.00
2022-12-15T15:30:56.528Z,97731.00
2022-12-15T15:33:30.648Z,97738.00
2022-12-15T15:36:02.484Z,97736.00
2022-12-15T15:38:35.782Z,97748.00
2022-12-15T15:41:18.059Z,97736.00
2022-12-15T15:43:48.327Z,97725.00
2022-12-15T15:46:21.169Z,97748.00
2022-12-15T15:48:54.886Z,97749.00
2022-12-15T15:51:25.372Z,97767.00
2022-12-15T15:53:56.195Z,97767.00
2022-12-15T15:56:27.548Z,97761.00
2022-12-15T15:58:57.527Z,97776.00
2022-12-15T16:01:27.565Z,97770.00
2022-12-15T16:04:00.141Z,97776.00
2022-12-15T16:06:30.524Z,97770.00
2022-12-15T16:09:00.468Z,97772.00
2022-12-15T16:11:33.020Z,97770.00
2022-12-15T16:14:03.742Z,97772.00
2022-12-15T16:16:35.390Z,97766.00
2022-12-15T16:19:07.979Z,97765.00
2022-12-15T16:21:38.517Z,97760.00
2022-12-15T16:24:11.805Z,97756.00
2022-12-15T16:26:41.984Z,97751.00
2022-12-15T16:29:17.618Z,97736.00
2022-12-15T16:31:48.082Z,97726.00
2022-12-15T16:34:21.858Z,97737.00
2022-12-15T16:36:51.780Z,97735.00
2022-12-15T16:39:27.844Z,97753.00
2022-12-15T16:41:58.585Z,97748.00
2022-12-15T16:44:29.644Z,97748.00
2022-12-15T16:47:00.186Z,97741.00
2022-12-15T16:49:39.777Z,97740.00
2022-12-15T16:52:12.111Z,97743.00
2022-12-15T16:54:42.280Z,97735.00
2022-12-15T16:57:13.760Z,97744.00
2022-12-15T16:59:43.653Z,97754.00
2022-12-15T17:02:29.528Z,97767.00
2022-12-15T17:05:02.274Z,97777.00
2022-12-15T17:07:32.631Z,97760.00
2022-12-15T17:10:02.572Z,97772.00
2022-12-15T17:12:33.100Z,97776.00
2022-12-15T17:15:03.052Z,97767.00
2022-12-15T17:17:33.436Z,97770.00
2022-12-15T17:20:35.749Z,97772.00
2022-12-15T17:22:58.825Z,97768.00
2022-12-15T17:26:09.376Z,97773.00
2022-12-15T17:28:27.409Z,97768.00
2022-12-15T17:30:57.655Z,97757.00
2022-12-15T17:33:29.822Z,97781.00
2022-12-15T17:36:03.726Z,97784.00
2022-12-15T17:38:33.688Z,97772.00
2022-12-15T17:41:04.034Z,97775.00
2022-12-15T17:43:36.147Z,97774.00
2022-12-15T17:46:06.378Z,97780.00
2022-12-15T17:48:36.477Z,97780.00
2022-12-15T17:51:15.515Z,97770.00
2022-12-15T17:53:45.729Z,97770.00
2022-12-15T17:56:17.484Z,97765.00
2022-12-15T17:58:47.630Z,97775.00
2022-12-15T18:01:17.592Z,97780.00
2022-12-15T18:03:47.659Z,97778.00
2022-12-15T18:06:20.798Z,97775.00
2022-12-15T18:08:51.048Z,97765.00
2022-12-15T18:11:21.256Z,97771.00
2022-12-15T18:13:51.358Z,97756.00
2022-12-15T18:16:21.275Z,97772.00
2022-12-15T18:18:51.323Z,97762.00
2022-12-15T18:21:25.066Z,97758.00
2022-12-15T18:23:55.046Z,97759.00
2022-12-15T18:26:24.904Z,97766.00
2022-12-15T18:28:54.877Z,97771.00
2022-12-15T18:31:27.896Z,97770.00
2022-12-15T18:34:04.346Z,97759.00
2022-12-15T18:36:37.207Z,97778.00
2022-12-15T18:39:18.735Z,97774.00
2022-12-15T18:41:49.185Z,97772.00
2022-12-15T18:44:23.866Z,97762.00
2022-12-15T18:46:55.008Z,97769.00
2022-12-15T18:49:25.334Z,97756.00
2022-12-15T18:51:57.925Z,97771.00
2022-12-15T18:54:28.919Z,97767.00
2022-12-15T18:56:58.855Z,97780.00
2022-12-15T18:59:28.820Z,97778.00
2022-12-15T19:01:58.812Z,97771.00
2022-12-15T19:04:28.820Z,97778.00
2022-12-15T19:07:06.671Z,97760.00
2022-12-15T19:09:36.988Z,97759.00
2022-12-15T19:12:22.061Z,97768.00
2022-12-15T19:14:55.120Z,97765.00
2022-12-15T19:17:39.167Z,97767.00
2022-12-15T19:20:27.883Z,97772.00
2022-12-15T19:23:00.324Z,97761.00
2022-12-15T19:25:31.950Z,97756.00
2022-12-15T19:28:03.376Z,97755.00
2022-12-15T19:30:40.242Z,97748.00
2022-12-15T19:33:12.230Z,97742.00
2022-12-15T19:35:43.555Z,97756.00
2022-12-15T19:38:22.438Z,97756.00
2022-12-15T19:40:53.491Z,97757.00
2022-12-15T19:43:24.185Z,97753.00
2022-12-15T19:45:54.865Z,97748.00
2022-12-15T19:48:24.818Z,97740.00
2022-12-15T19:50:55.111Z,97748.00
2022-12-15T19:53:30.122Z,97747.00
2022-12-15T19:56:02.689Z,97738.00
2022-12-15T19:58:34.125Z,97734.00
2022-12-15T20:01:07.416Z,97751.00
2022-12-15T20:03:39.088Z,97742.00
2022-12-15T20:06:16.089Z,97737.00
2022-12-15T20:08:50.492Z,97738.00
2022-12-15T20:11:22.799Z,97741.00
2022-12-15T20:13:53.454Z,97733.00
2022-12-15T20:16:24.239Z,97733.00
2022-12-15T20:18:56.127Z,97745.00
2022-12-15T20:21:31.353Z,97734.00
2022-12-15T20:24:07.805Z,97743.00
2022-12-15T20:26:39.378Z,97724.00
2022-12-15T20:29:13.481Z,97728.00
2022-12-15T20:31:43.469Z,97735.00
2022-12-15T20:34:13.450Z,97730.00
2022-12-15T20:36:43.326Z,97735.00
2022-12-15T20:39:22.661Z,97726.00
2022-12-15T20:41:52.621Z,97712.00
2022-12-15T20:44:23.061Z,97706.00
2022-12-15T20:46:53.332Z,97700.00
2022-12-15T20:49:24.931Z,97706.00
2022-12-15T20:51:55.289Z,97710.00
2022-12-15T20:54:27.754Z,97699.00
2022-12-15T20:56:57.749Z,97705.00
2022-12-15T20:59:27.628Z,97698.00
2022-12-15T21:01:57.678Z,97704.00
2022-12-15T21:04:30.484Z,97707.00
2022-12-15T21:07:00.410Z,97691.00
2022-12-15T21:09:33.333Z,97691.00
2022-12-15T21:12:08.991Z,97686.00
2022-12-15T21:14:39.247Z,97695.00
2022-12-15T21:17:09.270Z,97690.00
2022-12-15T21:19:39.185Z,97692.00
2022-12-15T21:22:12.486Z,97694.00
2022-12-15T21:24:44.985Z,97698.00
2022-12-15T21:27:15.296Z,97699.00
2022-12-15T21:29:52.025Z,97699.00
2022-12-15T21:32:22.746Z,97681.00
2022-12-15T21:34:52.737Z,97682.00
2022-12-15T21:37:27.472Z,97680.00
2022-12-15T21:40:00.863Z,97689.00
2022-12-15T21:42:30.851Z,97688.00
2022-12-15T21:45:00.723Z,97693.00
2022-12-15T21:47:52.652Z,97684.00
2022-12-15T21:50:22.215Z,97673.00
2022-12-15T21:52:52.060Z,97669.00
2022-12-15T21:55:27.351Z,97654.00
2022-12-15T21:57:57.951Z,97657.00
2022-12-15T22:00:28.580Z,97661.00
2022-12-15T22:02:58.675Z,97666.00
2022-12-15T22:05:30.495Z,97667.00
2022-12-15T22:08:01.377Z,97672.00
2022-12-15T22:10:33.870Z,97684.00
2022-12-15T22:13:03.817Z,97683.00
2022-12-15T22:15:33.704Z,97677.00
2022-12-15T22:18:03.705Z,97672.00
2022-12-15T22:20:33.608Z,97682.00
2022-12-15T22:23:03.464Z,97677.00
2022-12-15T22:25:36.033Z,97672.00
2022-12-15T22:28:06.359Z,97670.00
2022-12-15T22:30:36.265Z,97668.00
2022-12-15T22:33:15.051Z,97660.00
2022-12-15T22:35:47.496Z,97651.00
2022-12-15T22:38:17.356Z,97655.00
2022-12-15T22:40:51.826Z,97649.00
2022-12-15T22:43:25.368Z,97640.00
2022-12-15T22:45:56.169Z,97643.00
2022-12-15T22:48:27.226Z,97645.00
2022-12-15T22:50:57.051Z,97645.00
2022-12-15T22:53:28.507Z,97649.00
2022-12-15T22:56:02.024Z,97642.00
2022-12-15T22:58:34.514Z,97630.00
2022-12-15T23:01:04.660Z,97641.00
2022-12-15T23:03:35.149Z,97638.00
2022-12-15T23:06:06.471Z,97639.00
2022-12-15T23:08:36.455Z,97636.00
2022-12-15T23:11:21.393Z,97644.00
2022-12-15T23:13:51.318Z,97633.00
2022-12-15T23:16:22.298Z,97643.00
2022-12-15T23:18:54.985Z,97651.00
2022-12-15T23:21:26.366Z,97644.00
2022-12-15T23:23:56.334Z,97652.00
2022-12-15T23:26:29.059Z,97659.00
2022-12-15T23:28:59.024Z,97663.00
2022-12-15T23:31:29.039Z,97663.00
2022-12-15T23:33:59.109Z,97645.00
2022-12-15T23:36:28.912Z,97627.00
2022-12-15T23:39:00.128Z,97625.00
2022-12-15T23:41:33.165Z,97617.00
2022-12-15T23:44:03.431Z,97638.00
2022-12-15T23:46:34.039Z,97639.00
2022-12-15T23:49:04.020Z,97637.00
2022-12-15T23:51:33.845Z,97639.00
2022-12-15T23:54:03.622Z,97630.00
2022-12-15T23:56:36.151Z,97633.00
2022-12-15T23:59:06.065Z,97636.00
